Time;durP1;ratioP1;P1;durP2;ratioP2;P2;SDS_P1;SDS_P2;PMS_P1;PMS_P2;Temp;Humidity;BMP_temperature;BMP_pressure;BME280_temperature;BME280_humidity;BME280_pressure;Samples;Min_cycle;Max_cycle;Signal;HPM_P1;HPM_P2
2021/12/31 00:01:12;;;;;;;3.60;1.43;;;11.90;99.90;;;;;;5076310;28;20048;-84
2021/12/31 00:03:38;;;;;;;5.73;2.00;;;11.90;99.90;;;;;;5053954;28;20052;-84
2021/12/31 00:06:05;;;;;;;6.73;1.87;;;12.00;99.90;;;;;;5068949;28;20104;-87
2021/12/31 00:08:30;;;;;;;3.08;1.65;;;12.00;99.90;;;;;;5041012;28;20053;-84
2021/12/31 00:10:59;;;;;;;8.73;1.57;;;12.00;99.90;;;;;;5042634;28;20036;-84
2021/12/31 00:13:26;;;;;;;3.40;1.73;;;12.00;99.90;;;;;;5045758;28;20154;-84
2021/12/31 00:15:52;;;;;;;3.42;1.60;;;12.00;99.90;;;;;;5044973;28;20041;-84
2021/12/31 00:18:18;;;;;;;4.13;2.37;;;12.00;99.90;;;;;;5075254;28;20446;-84
2021/12/31 00:20:43;;;;;;;5.23;1.93;;;12.00;99.90;;;;;;5060706;28;20380;-83
2021/12/31 00:23:12;;;;;;;3.23;1.53;;;12.00;99.90;;;;;;5061729;28;20075;-84
2021/12/31 00:25:43;;;;;;;4.95;1.98;;;12.00;99.90;;;;;;5066528;28;20048;-84
2021/12/31 00:28:11;;;;;;;4.25;1.73;;;12.00;99.90;;;;;;5045665;28;20771;-85
2021/12/31 00:30:38;;;;;;;3.17;1.42;;;12.10;99.90;;;;;;5060160;28;20534;-84
2021/12/31 00:33:04;;;;;;;;;;;12.10;99.90;;;;;;5079376;28;20041;-84
2021/12/31 00:35:31;;;;;;;4.53;1.67;;;12.00;99.90;;;;;;5042000;28;19921;-84
2021/12/31 00:37:57;;;;;;;8.40;2.90;;;12.00;99.90;;;;;;5043840;28;20048;-84
2021/12/31 00:40:22;;;;;;;3.60;2.13;;;12.10;99.90;;;;;;5059452;28;20048;-84
2021/12/31 00:42:49;;;;;;;11.20;2.70;;;12.00;99.90;;;;;;5041193;28;20041;-84
2021/12/31 00:45:16;;;;;;;;;;;12.10;99.90;;;;;;5077454;28;20174;-84
2021/12/31 00:47:42;;;;;;;2.72;1.90;;;12.10;99.90;;;;;;5061562;28;19967;-84
2021/12/31 00:50:10;;;;;;;4.05;2.20;;;12.10;99.90;;;;;;5058938;28;20052;-88
2021/12/31 00:52:35;;;;;;;8.38;2.33;;;12.00;99.90;;;;;;5077733;28;20087;-84
2021/12/31 00:55:02;;;;;;;10.87;2.67;;;12.10;99.90;;;;;;5054081;28;20080;-84
2021/12/31 00:57:27;;;;;;;6.18;2.42;;;12.00;99.90;;;;;;5044196;28;20041;-84
2021/12/31 00:59:53;;;;;;;6.33;2.93;;;12.00;99.90;;;;;;5077331;28;20033;-84
2021/12/31 01:02:21;;;;;;;6.47;2.73;;;12.00;99.90;;;;;;5038068;28;20083;-84
2021/12/31 01:04:47;;;;;;;6.97;3.17;;;12.00;99.90;;;;;;5057334;28;20054;-84
2021/12/31 01:07:12;;;;;;;4.07;2.77;;;12.00;99.90;;;;;;5062778;28;20044;-85
2021/12/31 01:09:38;;;;;;;7.43;2.77;;;12.00;99.90;;;;;;5074284;28;20045;-84
2021/12/31 01:12:07;;;;;;;7.30;3.00;;;12.10;99.90;;;;;;5042040;28;20044;-84
2021/12/31 01:14:37;;;;;;;4.55;2.95;;;12.00;99.90;;;;;;5078621;28;20745;-84
2021/12/31 01:17:07;;;;;;;11.73;2.72;;;12.00;99.90;;;;;;5075410;28;20475;-85
2021/12/31 01:19:46;;;;;;;4.47;2.45;;;12.00;99.90;;;;;;5073643;28;20672;-84
2021/12/31 01:22:26;;;;;;;8.00;2.80;;;12.00;99.90;;;;;;5066000;28;20044;-86
2021/12/31 01:24:52;;;;;;;5.28;1.58;;;12.10;99.90;;;;;;5088495;28;20541;-86
2021/12/31 01:27:18;;;;;;;8.27;2.80;;;12.00;99.90;;;;;;5054534;28;20080;-86
2021/12/31 01:29:44;;;;;;;5.50;2.35;;;12.00;99.90;;;;;;5054902;28;20509;-86
2021/12/31 01:32:11;;;;;;;5.35;2.83;;;12.00;99.90;;;;;;5054783;28;20056;-87
2021/12/31 01:34:38;;;;;;;6.25;2.15;;;12.00;99.90;;;;;;5087846;28;20364;-86
2021/12/31 01:37:04;;;;;;;;;;;12.00;99.90;;;;;;5055219;28;20127;-86
2021/12/31 01:39:30;;;;;;;6.65;2.15;;;12.00;99.90;;;;;;5087857;28;20360;-86
2021/12/31 01:42:00;;;;;;;7.97;2.80;;;11.90;99.90;;;;;;5054818;28;20045;-86
2021/12/31 01:44:34;;;;;;;8.65;2.20;;;12.00;99.90;;;;;;5054323;28;20041;-87
2021/12/31 01:47:05;;;;;;;4.40;2.47;;;11.90;99.90;;;;;;5053851;28;20075;-86
2021/12/31 01:49:36;;;;;;;4.03;2.42;;;11.90;99.90;;;;;;5054214;28;20052;-86
2021/12/31 01:52:04;;;;;;;6.18;2.20;;;11.90;99.90;;;;;;5054477;28;20117;-86
2021/12/31 01:54:31;;;;;;;5.75;2.67;;;11.90;99.90;;;;;;5070666;28;20049;-86
2021/12/31 01:56:57;;;;;;;;;;;11.90;99.90;;;;;;5054603;28;20101;-86
2021/12/31 01:59:24;;;;;;;3.63;2.17;;;11.90;99.90;;;;;;5070873;28;19943;-86
2021/12/31 02:01:50;;;;;;;5.70;1.83;;;11.90;99.90;;;;;;5087873;28;20079;-86
2021/12/31 02:04:16;;;;;;;4.20;1.88;;;11.90;99.90;;;;;;5072276;28;20040;-86
2021/12/31 02:06:42;;;;;;;6.63;1.73;;;11.90;99.90;;;;;;5087437;28;20048;-86
2021/12/31 02:09:08;;;;;;;5.17;2.60;;;11.90;99.90;;;;;;5054344;28;20083;-86
2021/12/31 02:11:34;;;;;;;8.43;1.67;;;11.90;99.90;;;;;;5053890;28;20444;-87
2021/12/31 02:14:01;;;;;;;6.38;2.22;;;11.80;99.90;;;;;;5087941;28;20060;-86
2021/12/31 02:16:27;;;;;;;5.97;2.63;;;11.80;99.90;;;;;;5053846;28;20135;-87
2021/12/31 02:18:53;;;;;;;4.38;1.60;;;11.70;99.90;;;;;;5054243;28;20131;-86
2021/12/31 02:21:21;;;;;;;5.13;2.17;;;11.70;99.90;;;;;;5054124;28;20143;-86
2021/12/31 02:23:55;;;;;;;8.13;2.63;;;11.80;99.90;;;;;;5087672;28;20185;-86
2021/12/31 02:26:21;;;;;;;7.30;2.30;;;11.80;99.90;;;;;;5087327;28;20483;-87
2021/12/31 02:28:46;;;;;;;6.32;2.08;;;11.80;99.90;;;;;;5053815;28;20048;-86
2021/12/31 02:31:12;;;;;;;4.33;2.27;;;11.90;99.90;;;;;;5054018;28;20047;-86
2021/12/31 02:33:39;;;;;;;8.07;1.87;;;11.90;99.90;;;;;;5087168;28;20059;-86
2021/12/31 02:36:07;;;;;;;6.55;2.10;;;11.90;99.90;;;;;;5087306;28;20063;-86
2021/12/31 02:38:33;;;;;;;2.97;1.80;;;11.90;99.90;;;;;;5053642;28;20048;-87
2021/12/31 02:40:59;;;;;;;4.30;1.98;;;12.00;99.90;;;;;;5053808;28;20422;-87
2021/12/31 02:43:25;;;;;;;4.33;1.97;;;12.10;99.90;;;;;;5070299;28;20041;-87
2021/12/31 02:45:51;;;;;;;4.87;1.60;;;12.00;99.90;;;;;;5053990;28;20063;-86
2021/12/31 02:48:24;;;;;;;5.60;1.77;;;12.10;99.90;;;;;;5070433;28;20045;-86
2021/12/31 02:50:52;;;;;;;2.75;2.20;;;12.10;99.90;;;;;;5053563;28;20143;-87
2021/12/31 02:53:23;;;;;;;3.70;2.08;;;12.10;99.90;;;;;;5070630;28;20487;-86
2021/12/31 02:56:02;;;;;;;3.30;1.98;;;12.00;99.90;;;;;;5087192;28;20088;-87
2021/12/31 02:58:31;;;;;;;5.57;2.20;;;12.10;99.90;;;;;;5055671;28;20375;-87
2021/12/31 03:00:57;;;;;;;5.80;1.98;;;12.10;99.90;;;;;;5057371;28;20044;-87
2021/12/31 03:03:24;;;;;;;4.50;2.42;;;12.10;99.90;;;;;;5057471;28;20514;-87
2021/12/31 03:05:54;;;;;;;3.78;2.00;;;12.10;99.90;;;;;;5090626;28;20036;-87
2021/12/31 03:08:27;;;;;;;3.13;2.08;;;12.10;99.90;;;;;;5074169;28;20048;-86
2021/12/31 03:10:55;;;;;;;3.17;2.75;;;12.20;99.90;;;;;;5073983;28;20040;-87
2021/12/31 03:13:23;;;;;;;11.88;2.90;;;12.10;99.90;;;;;;5057200;28;20495;-86
2021/12/31 03:15:50;;;;;;;8.20;2.80;;;12.20;99.90;;;;;;5056868;28;20037;-87
2021/12/31 03:18:18;;;;;;;6.25;2.60;;;12.10;99.90;;;;;;5057389;28;20052;-87
2021/12/31 03:21:00;;;;;;;2.60;2.15;;;12.20;99.90;;;;;;5056210;28;20056;-86
2021/12/31 03:23:26;;;;;;;7.03;3.20;;;11.30;99.90;;;;;;5090475;28;20048;-87
2021/12/31 03:25:52;;;;;;;7.57;3.13;;;12.20;99.90;;;;;;5073641;28;20052;-86
2021/12/31 03:28:19;;;;;;;2.90;2.50;;;12.20;99.90;;;;;;5090581;28;20040;-86
2021/12/31 03:30:45;;;;;;;7.20;3.50;;;12.20;99.90;;;;;;5056574;28;20044;-86
2021/12/31 03:33:11;;;;;;;;;;;12.20;99.90;;;;;;5057492;28;20394;-86
2021/12/31 03:35:36;;;;;;;6.28;2.95;;;12.20;99.90;;;;;;5073255;28;20016;-86
2021/12/31 03:38:03;;;;;;;3.13;2.60;;;12.20;99.90;;;;;;5040363;28;20127;-86
2021/12/31 03:40:28;;;;;;;4.63;2.83;;;12.20;99.90;;;;;;5090363;28;20053;-86
2021/12/31 03:42:54;;;;;;;8.97;2.80;;;12.20;99.90;;;;;;5056574;28;20037;-86
2021/12/31 03:45:22;;;;;;;2.73;2.30;;;12.20;99.90;;;;;;5056960;28;20048;-86
2021/12/31 03:47:48;;;;;;;4.15;2.70;;;12.30;99.90;;;;;;5056331;28;20151;-86
2021/12/31 03:50:16;;;;;;;5.67;2.57;;;12.20;99.90;;;;;;5039498;28;20538;-86
2021/12/31 03:52:42;;;;;;;5.95;2.45;;;12.30;99.90;;;;;;5072816;28;20117;-86
2021/12/31 03:55:12;;;;;;;6.50;2.93;;;12.30;99.90;;;;;;5073173;28;20040;-86
2021/12/31 03:57:38;;;;;;;4.50;2.25;;;12.30;99.90;;;;;;5089880;28;20044;-86
2021/12/31 04:00:09;;;;;;;2.33;1.90;;;12.30;99.90;;;;;;5090027;28;20067;-86
2021/12/31 04:02:35;;;;;;;6.55;2.25;;;12.50;99.90;;;;;;5055947;28;20522;-86
2021/12/31 04:05:02;;;;;;;2.63;1.80;;;12.30;99.90;;;;;;5073059;28;20131;-87
2021/12/31 04:07:28;;;;;;;5.43;1.42;;;12.30;99.90;;;;;;5090086;28;20083;-86
2021/12/31 04:09:53;;;;;;;2.43;1.53;;;12.30;99.90;;;;;;5055082;28;20221;-86
2021/12/31 04:12:19;;;;;;;3.80;1.50;;;12.30;99.90;;;;;;5056323;28;20049;-86
2021/12/31 04:14:45;;;;;;;4.33;2.30;;;12.40;99.90;;;;;;5055859;28;20080;-86
2021/12/31 04:17:11;;;;;;;2.23;1.83;;;12.40;99.90;;;;;;5056302;28;20048;-86
2021/12/31 04:19:36;;;;;;;1.93;1.40;;;12.40;99.90;;;;;;5055161;28;20041;-87
2021/12/31 04:22:03;;;;;;;3.13;1.77;;;12.40;99.90;;;;;;5056029;28;20034;-86
2021/12/31 04:24:52;;;;;;;1.77;1.67;;;12.40;99.90;;;;;;5056019;28;20467;-86
2021/12/31 04:27:19;;;;;;;5.43;2.05;;;12.40;99.90;;;;;;5055988;28;20567;-86
2021/12/31 04:29:50;;;;;;;;;;;12.40;99.90;;;;;;5055922;28;20090;-86
2021/12/31 04:32:21;;;;;;;3.72;1.80;;;12.40;99.90;;;;;;5072573;28;19921;-86
2021/12/31 04:34:47;;;;;;;5.03;1.70;;;12.70;99.90;;;;;;5089034;28;20053;-86
2021/12/31 04:37:13;;;;;;;3.72;2.10;;;12.30;99.90;;;;;;5089048;28;20084;-85
2021/12/31 04:39:38;;;;;;;2.97;2.20;;;12.40;99.90;;;;;;5055551;28;20142;-86
2021/12/31 04:42:05;;;;;;;3.57;2.43;;;12.40;99.90;;;;;;5089132;28;20546;-86
2021/12/31 04:44:30;;;;;;;5.57;2.90;;;12.40;99.90;;;;;;5055376;28;20690;-86
2021/12/31 04:46:56;;;;;;;3.50;2.40;;;12.40;99.90;;;;;;5055115;28;20045;-86
2021/12/31 04:49:22;;;;;;;7.00;3.53;;;12.40;99.90;;;;;;5055657;28;20037;-87
2021/12/31 04:51:48;;;;;;;3.93;3.27;;;12.40;99.90;;;;;;5088217;28;20056;-86
2021/12/31 04:54:15;;;;;;;5.03;2.67;;;12.30;99.90;;;;;;5055846;28;20135;-86
2021/12/31 04:56:43;;;;;;;6.93;3.20;;;12.30;99.90;;;;;;5071996;28;20055;-86
2021/12/31 04:59:10;;;;;;;6.38;3.50;;;12.30;99.90;;;;;;5055311;28;20053;-86
2021/12/31 05:01:36;;;;;;;3.88;2.78;;;12.30;99.90;;;;;;5088195;28;20045;-86
2021/12/31 05:04:01;;;;;;;5.95;3.20;;;12.30;99.90;;;;;;5054869;28;20071;-87
2021/12/31 05:06:27;;;;;;;3.73;3.20;;;12.20;99.90;;;;;;5055139;28;20403;-86
2021/12/31 05:08:53;;;;;;;6.53;3.20;;;12.20;99.90;;;;;;5071692;28;20131;-86
2021/12/31 05:11:19;;;;;;;4.73;3.00;;;12.20;99.90;;;;;;5055191;28;20492;-86
2021/12/31 05:13:48;;;;;;;4.43;2.90;;;12.20;99.90;;;;;;5054802;28;20054;-87
2021/12/31 05:16:13;;;;;;;3.15;2.85;;;12.20;99.90;;;;;;5055234;28;20044;-86
2021/12/31 05:18:39;;;;;;;5.37;3.40;;;12.20;99.90;;;;;;5088822;28;20051;-86
2021/12/31 05:21:05;;;;;;;4.03;2.33;;;12.30;99.90;;;;;;5088469;28;20072;-85
2021/12/31 05:23:31;;;;;;;2.87;1.93;;;12.30;99.90;;;;;;5054971;28;20298;-86
2021/12/31 05:25:59;;;;;;;3.50;2.83;;;12.30;99.90;;;;;;5071286;28;20048;-86
2021/12/31 05:28:25;;;;;;;4.83;2.47;;;12.40;99.90;;;;;;5055226;28;20049;-86
2021/12/31 05:30:51;;;;;;;5.13;2.07;;;12.30;99.90;;;;;;5090419;28;20046;-85
2021/12/31 05:33:17;;;;;;;3.63;2.57;;;12.40;99.90;;;;;;5091115;28;20044;-86
2021/12/31 05:35:42;;;;;;;2.30;1.63;;;12.40;99.90;;;;;;5088679;28;20045;-86
2021/12/31 05:38:08;;;;;;;2.53;2.00;;;12.20;99.90;;;;;;5071418;28;20045;-86
2021/12/31 05:40:34;;;;;;;5.73;2.03;;;12.40;99.90;;;;;;5057702;28;20055;-86
2021/12/31 05:43:00;;;;;;;3.30;2.17;;;12.40;99.90;;;;;;5074481;28;20051;-86
2021/12/31 05:45:26;;;;;;;3.20;2.50;;;12.30;99.90;;;;;;5071735;28;20041;-86
2021/12/31 05:47:52;;;;;;;2.33;2.13;;;12.40;99.90;;;;;;5054176;28;20287;-86
2021/12/31 05:50:29;;;;;;;2.93;2.17;;;12.40;99.90;;;;;;5071027;28;20186;-87
2021/12/31 05:52:59;;;;;;;3.17;2.25;;;12.30;99.90;;;;;;5054202;28;20055;-86
2021/12/31 05:55:26;;;;;;;2.65;2.05;;;12.30;99.90;;;;;;5054457;28;20048;-86
2021/12/31 05:57:55;;;;;;;3.00;2.00;;;12.30;99.90;;;;;;5070731;28;20040;-85
2021/12/31 06:00:21;;;;;;;5.70;1.95;;;12.40;99.90;;;;;;5071238;28;20044;-85
2021/12/31 06:02:47;;;;;;;4.55;2.67;;;12.40;99.90;;;;;;5053894;28;20044;-86
2021/12/31 06:05:13;;;;;;;2.80;1.63;;;12.40;99.90;;;;;;5053946;28;20135;-86
2021/12/31 06:07:39;;;;;;;2.42;1.70;;;12.30;99.90;;;;;;5087798;28;20044;-86
2021/12/31 06:10:05;;;;;;;2.30;1.57;;;12.30;99.90;;;;;;5053939;28;20055;-86
2021/12/31 06:12:34;;;;;;;5.90;1.70;;;12.30;99.90;;;;;;5054474;28;20135;-86
2021/12/31 06:15:04;;;;;;;2.47;1.95;;;12.30;99.90;;;;;;5054034;28;20054;-86
2021/12/31 06:17:31;;;;;;;2.33;1.83;;;12.30;99.90;;;;;;5070626;28;20052;-86
2021/12/31 06:19:57;;;;;;;;;;;12.20;99.90;;;;;;5054212;28;20055;-86
2021/12/31 06:22:24;;;;;;;1.63;1.50;;;12.30;99.90;;;;;;5087531;28;19920;-86
2021/12/31 06:24:49;;;;;;;;;;;12.20;99.90;;;;;;5070843;28;20048;-86
2021/12/31 06:27:16;;;;;;;3.95;1.83;;;12.20;99.90;;;;;;5087274;28;19920;-86
2021/12/31 06:29:42;;;;;;;3.15;1.50;;;12.20;99.90;;;;;;5054001;28;20052;-86
2021/12/31 06:32:08;;;;;;;2.77;1.93;;;12.20;99.90;;;;;;5053567;28;20131;-86
2021/12/31 06:34:34;;;;;;;1.90;1.35;;;12.20;99.90;;;;;;5058174;28;20048;-86
2021/12/31 06:37:00;;;;;;;2.85;1.60;;;12.40;99.90;;;;;;5057179;28;20060;-86
2021/12/31 06:39:27;;;;;;;2.07;1.67;;;12.20;99.90;;;;;;5041175;28;20048;-86
2021/12/31 06:41:53;;;;;;;2.40;1.58;;;12.20;99.90;;;;;;5057429;28;20554;-86
2021/12/31 06:44:19;;;;;;;1.38;1.27;;;12.60;99.90;;;;;;5074556;28;20048;-86
2021/12/31 06:46:44;;;;;;;1.93;1.63;;;12.20;99.90;;;;;;5057909;28;20399;-86
2021/12/31 06:49:10;;;;;;;1.40;1.30;;;12.20;99.90;;;;;;5057488;28;20299;-86
2021/12/31 06:51:36;;;;;;;1.87;1.27;;;12.20;99.90;;;;;;5057383;28;20056;-86
2021/12/31 06:54:02;;;;;;;3.53;1.70;;;12.20;99.90;;;;;;5090703;28;20044;-86
2021/12/31 06:56:27;;;;;;;2.80;1.37;;;12.20;99.90;;;;;;5074842;28;20040;-86
2021/12/31 06:58:53;;;;;;;2.37;1.70;;;12.20;99.90;;;;;;5058176;28;20437;-86
2021/12/31 07:01:19;;;;;;;1.30;1.17;;;12.20;99.90;;;;;;5090602;28;20529;-89
2021/12/31 07:03:45;;;;;;;1.95;1.38;;;12.90;99.90;;;;;;5057775;28;20044;-89
2021/12/31 07:06:13;;;;;;;2.20;1.80;;;12.20;99.90;;;;;;5075927;28;20487;-86
2021/12/31 07:08:39;;;;;;;1.30;1.20;;;12.10;99.90;;;;;;5057874;28;20044;-85
2021/12/31 07:11:05;;;;;;;2.83;1.63;;;11.30;99.90;;;;;;5073370;28;20051;-84
2021/12/31 07:13:31;;;;;;;3.43;1.57;;;12.00;99.90;;;;;;5057965;28;20044;-86
2021/12/31 07:16:02;;;;;;;3.33;1.77;;;11.50;99.90;;;;;;5057447;28;20286;-88
2021/12/31 07:18:30;;;;;;;2.88;1.52;;;11.90;99.90;;;;;;5057309;28;20131;-88
2021/12/31 07:21:09;;;;;;;1.80;1.45;;;11.90;99.90;;;;;;5057024;28;20495;-87
2021/12/31 07:23:35;;;;;;;3.38;1.50;;;12.00;99.90;;;;;;5056882;28;20049;-87
2021/12/31 07:26:06;;;;;;;5.55;1.60;;;11.90;99.90;;;;;;5073589;28;20047;-89
2021/12/31 07:28:32;;;;;;;1.67;1.52;;;11.80;99.90;;;;;;5056798;28;20044;-84
2021/12/31 07:31:00;;;;;;;3.40;1.70;;;11.80;99.90;;;;;;5057062;28;20525;-87
2021/12/31 07:33:29;;;;;;;2.10;1.63;;;11.80;99.90;;;;;;5056696;28;20051;-86
2021/12/31 07:36:00;;;;;;;3.83;1.60;;;11.80;99.90;;;;;;5073618;28;20048;-86
2021/12/31 07:38:38;;;;;;;6.15;1.63;;;11.80;99.90;;;;;;5056503;28;20633;-87
2021/12/31 07:41:05;;;;;;;1.60;1.50;;;11.80;99.90;;;;;;5089996;28;20048;-87
2021/12/31 07:43:36;;;;;;;2.63;1.55;;;11.70;99.90;;;;;;5055948;28;20044;-85
2021/12/31 07:46:04;;;;;;;3.53;1.85;;;11.70;99.90;;;;;;5056300;28;20064;-91
2021/12/31 07:48:41;;;;;;;1.70;1.60;;;11.70;99.90;;;;;;5056945;28;20481;-89
2021/12/31 07:51:17;;;;;;;4.53;1.67;;;11.70;99.90;;;;;;5055852;28;20088;-91
2021/12/31 07:53:43;;;;;;;1.73;1.50;;;11.70;99.90;;;;;;5056734;28;20441;-90
2021/12/31 07:56:30;;;;;;;2.05;1.80;;;11.70;99.90;;;;;;5056291;28;20113;-92
2021/12/31 07:59:01;;;;;;;5.53;2.03;;;11.70;99.90;;;;;;5056536;28;20063;-89
2021/12/31 08:01:32;;;;;;;4.20;2.15;;;11.70;99.90;;;;;;5089772;28;20048;-87
2021/12/31 08:03:58;;;;;;;1.58;1.48;;;11.70;99.90;;;;;;5056179;28;20051;-89
2021/12/31 08:06:27;;;;;;;3.03;1.90;;;11.70;99.90;;;;;;5055800;28;20040;-88
2021/12/31 08:08:58;;;;;;;4.28;1.73;;;11.70;99.90;;;;;;5056175;28;20498;-87
2021/12/31 08:11:23;;;;;;;5.78;1.77;;;11.10;99.90;;;;;;5055884;28;20689;-87
2021/12/31 08:13:49;;;;;;;4.80;1.63;;;11.80;99.90;;;;;;5055833;28;20048;-88
2021/12/31 08:16:15;;;;;;;2.10;1.63;;;11.80;99.90;;;;;;5055666;28;20052;-87
2021/12/31 08:18:41;;;;;;;2.60;1.70;;;11.80;99.90;;;;;;5056238;28;20045;-87
2021/12/31 08:24:16;;;;;;;;;;;11.80;99.90;;;;;;5075344;28;20049;-88
2021/12/31 08:26:42;;;;;;;2.25;1.50;;;11.90;99.90;;;;;;5072545;28;19927;-88
2021/12/31 08:29:12;;;;;;;2.20;1.27;;;11.90;99.90;;;;;;5055375;28;20048;-87
2021/12/31 08:31:44;;;;;;;1.98;1.67;;;12.00;99.90;;;;;;5089122;28;20053;-87
2021/12/31 08:34:11;;;;;;;4.85;1.98;;;11.90;99.90;;;;;;5055295;28;20080;-88
2021/12/31 08:36:42;;;;;;;2.70;2.38;;;12.00;99.90;;;;;;5055793;28;20145;-86
2021/12/31 08:39:09;;;;;;;2.13;1.40;;;12.00;99.90;;;;;;5055738;28;20071;-88
2021/12/31 08:41:37;;;;;;;2.03;1.60;;;12.10;99.90;;;;;;5055319;28;20060;-87
2021/12/31 08:44:03;;;;;;;2.97;1.80;;;11.30;99.90;;;;;;5072462;28;20067;-87
2021/12/31 08:46:32;;;;;;;2.15;1.75;;;12.00;99.90;;;;;;5088726;28;20055;-87
2021/12/31 08:49:01;;;;;;;1.75;1.65;;;12.10;99.90;;;;;;5088823;28;20048;-87
2021/12/31 08:51:28;;;;;;;4.35;2.33;;;11.50;99.90;;;;;;5054495;28;20092;-88
2021/12/31 08:53:54;;;;;;;4.85;3.15;;;12.10;99.90;;;;;;5054708;28;20045;-87
2021/12/31 08:56:20;;;;;;;12.75;8.05;;;12.10;99.90;;;;;;5054870;28;20135;-86
2021/12/31 08:58:52;;;;;;;10.20;6.05;;;12.10;99.90;;;;;;5055600;28;20054;-87
2021/12/31 09:01:27;;;;;;;6.70;3.53;;;12.10;99.90;;;;;;5052694;28;20102;-89
2021/12/31 09:03:57;;;;;;;15.15;8.05;;;12.00;99.90;;;;;;5053804;28;20040;-88
2021/12/31 09:06:26;;;;;;;12.60;6.35;;;12.10;99.90;;;;;;5071157;28;20036;-89
2021/12/31 09:08:56;;;;;;;4.32;2.17;;;12.10;99.90;;;;;;5054013;28;20044;-87
2021/12/31 09:11:22;;;;;;;3.38;2.05;;;11.40;99.90;;;;;;5058997;28;20139;-87
2021/12/31 09:13:55;;;;;;;2.57;2.33;;;12.10;99.90;;;;;;5058306;28;20094;-86
2021/12/31 09:16:21;;;;;;;3.85;2.50;;;12.10;99.90;;;;;;5053016;28;20041;-86
2021/12/31 09:18:49;;;;;;;3.13;2.83;;;12.10;99.90;;;;;;5054341;28;20055;-87
2021/12/31 09:21:20;;;;;;;4.75;4.28;;;12.10;99.90;;;;;;5054239;28;20319;-86
2021/12/31 09:23:46;;;;;;;4.93;3.72;;;12.10;99.90;;;;;;5070330;28;20048;-87
2021/12/31 09:26:12;;;;;;;3.22;2.20;;;12.10;99.90;;;;;;5072446;28;20501;-89
2021/12/31 09:28:38;;;;;;;2.75;2.35;;;12.10;99.90;;;;;;5071177;28;20052;-86
2021/12/31 09:31:07;;;;;;;3.13;2.30;;;12.10;99.90;;;;;;5054462;28;20044;-86
2021/12/31 09:33:33;;;;;;;2.67;2.05;;;12.10;99.90;;;;;;5054419;28;20787;-88
2021/12/31 09:35:59;;;;;;;2.47;1.70;;;12.10;99.90;;;;;;5054828;28;20045;-88
2021/12/31 09:38:25;;;;;;;2.83;1.80;;;12.10;99.90;;;;;;5087634;28;20376;-88
2021/12/31 09:40:51;;;;;;;2.13;1.97;;;12.20;99.90;;;;;;5071470;28;20056;-87
2021/12/31 09:43:16;;;;;;;2.57;2.37;;;12.20;99.90;;;;;;5053655;28;20299;-89
2021/12/31 09:45:45;;;;;;;2.10;1.90;;;12.20;99.90;;;;;;5088186;28;20765;-86
2021/12/31 09:48:15;;;;;;;2.15;1.83;;;12.20;99.90;;;;;;5054411;28;20745;-87
2021/12/31 09:50:46;;;;;;;2.30;2.00;;;12.30;99.90;;;;;;5053657;28;20060;-87
2021/12/31 09:53:22;;;;;;;3.65;2.85;;;12.30;99.90;;;;;;5088031;28;20342;-87
2021/12/31 09:55:58;;;;;;;3.10;2.03;;;12.30;99.90;;;;;;5055178;28;20059;-87
2021/12/31 09:58:27;;;;;;;2.90;2.17;;;12.30;99.90;;;;;;5088418;28;20083;-87
2021/12/31 10:01:01;;;;;;;2.10;1.90;;;12.20;99.90;;;;;;5071888;28;20055;-86
2021/12/31 10:03:31;;;;;;;4.35;2.90;;;12.20;99.90;;;;;;5088135;28;20453;-87
2021/12/31 10:06:06;;;;;;;4.18;3.78;;;12.20;99.90;;;;;;5071563;28;20476;-87
2021/12/31 10:11:27;;;;;;;2.55;1.98;;;12.10;99.90;;;;;;5088262;28;20056;-86
2021/12/31 10:14:07;;;;;;;2.17;2.03;;;12.10;99.90;;;;;;5054993;28;20084;-87
2021/12/31 10:16:39;;;;;;;8.25;3.72;;;12.10;99.90;;;;;;5055126;28;20059;-87
2021/12/31 10:19:25;;;;;;;4.82;4.22;;;12.10;99.90;;;;;;5071489;28;20044;-87
2021/12/31 10:22:04;;;;;;;6.97;6.28;;;11.80;99.90;;;;;;5055557;28;20579;-87
2021/12/31 10:24:38;;;;;;;4.82;4.30;;;12.10;99.90;;;;;;5054625;28;20090;-87
2021/12/31 10:27:23;;;;;;;;;;;;;;;;;;;;;
2021/12/31 10:30:32;;;;;;;;;;;;;;;;;;;;;
2021/12/31 10:33:10;;;;;;;2.75;1.88;;;12.10;99.90;;;;;;5057556;28;20052;-86
2021/12/31 10:35:54;;;;;;;3.33;2.08;;;12.10;99.90;;;;;;5054601;28;20048;-87
2021/12/31 10:38:39;;;;;;;3.38;1.98;;;12.10;99.90;;;;;;5055033;28;20106;-87
2021/12/31 10:41:06;;;;;;;3.53;3.22;;;12.10;99.90;;;;;;5055059;28;20048;-87
2021/12/31 10:43:34;;;;;;;3.60;3.05;;;12.10;99.90;;;;;;5071093;28;20084;-87
2021/12/31 10:46:07;;;;;;;4.28;3.38;;;12.10;99.90;;;;;;5054695;28;20075;-87
2021/12/31 10:48:49;;;;;;;4.63;2.47;;;12.10;99.90;;;;;;5088051;28;20049;-87
2021/12/31 10:51:44;;;;;;;6.35;5.72;;;12.10;99.90;;;;;;5053992;28;20418;-87
2021/12/31 10:54:17;;;;;;;5.53;5.03;;;12.10;99.90;;;;;;5071266;28;20076;-88
2021/12/31 10:56:53;;;;;;;13.15;7.13;;;12.10;99.90;;;;;;5054763;28;20055;-88
2021/12/31 10:59:29;;;;;;;4.78;4.38;;;12.10;99.90;;;;;;5054686;28;20084;-88
2021/12/31 11:01:57;;;;;;;6.75;6.13;;;12.10;99.90;;;;;;5054420;28;20406;-87
2021/12/31 11:04:31;;;;;;;6.10;4.78;;;12.10;99.90;;;;;;5054756;28;20044;-88
2021/12/31 11:07:10;;;;;;;4.32;3.15;;;12.10;99.90;;;;;;5055434;28;20052;-87
2021/12/31 11:09:45;;;;;;;6.82;5.90;;;12.00;99.90;;;;;;5054399;28;20044;-87
2021/12/31 11:12:21;;;;;;;4.75;4.32;;;12.00;99.90;;;;;;5054796;28;20037;-87
2021/12/31 11:15:00;;;;;;;6.78;3.78;;;12.00;99.90;;;;;;5054339;28;20045;-87
2021/12/31 11:17:26;;;;;;;4.40;3.03;;;12.00;99.90;;;;;;5054339;28;20044;-93
2021/12/31 11:19:55;;;;;;;7.57;4.53;;;11.90;99.90;;;;;;5057329;28;20403;-85
2021/12/31 11:22:26;;;;;;;3.75;2.78;;;11.90;99.90;;;;;;5057922;28;20080;-85
2021/12/31 11:25:24;;;;;;;3.47;2.55;;;11.70;99.90;;;;;;5075739;28;20057;-86
2021/12/31 11:27:55;;;;;;;6.20;3.72;;;11.70;99.90;;;;;;5058973;28;20504;-86
2021/12/31 11:30:30;;;;;;;6.68;5.80;;;11.60;99.90;;;;;;5057927;28;20044;-86
2021/12/31 11:33:02;;;;;;;4.65;3.70;;;11.60;99.90;;;;;;5058213;28;20048;-86
2021/12/31 11:35:59;;;;;;;6.63;5.93;;;11.60;99.90;;;;;;5057783;28;20044;-93
2021/12/31 11:38:25;;;;;;;7.57;6.18;;;11.50;99.90;;;;;;5057743;28;20399;-86
2021/12/31 11:41:07;;;;;;;6.90;6.10;;;11.50;99.90;;;;;;5057620;28;20079;-86
2021/12/31 11:43:38;;;;;;;9.00;7.03;;;10.80;99.90;;;;;;5056685;28;20044;-86
2021/12/31 11:46:10;;;;;;;6.18;5.07;;;11.40;99.90;;;;;;5057746;28;20048;-86
2021/12/31 11:51:25;;;;;;;6.10;4.43;;;11.40;99.90;;;;;;5073884;28;20103;-86
2021/12/31 11:53:59;;;;;;;6.38;5.25;;;11.40;99.90;;;;;;5090869;28;20494;-87
2021/12/31 11:56:37;;;;;;;17.90;14.40;;;11.40;99.90;;;;;;5090734;28;20044;-86
2021/12/31 11:59:09;;;;;;;36.45;24.45;;;11.50;99.90;;;;;;5074099;28;20131;-86
2021/12/31 12:02:02;;;;;;;16.73;13.70;;;11.40;99.90;;;;;;5073456;28;20055;-87
2021/12/31 12:04:31;;;;;;;14.40;10.73;;;11.40;99.90;;;;;;5073782;28;20483;-86
2021/12/31 12:06:58;;;;;;;;;;;11.40;99.90;;;;;;5057485;28;20054;-86
2021/12/31 12:09:36;;;;;;;9.07;4.50;;;11.30;99.90;;;;;;5073958;28;19931;-85
2021/12/31 12:12:07;;;;;;;3.95;3.53;;;11.40;99.90;;;;;;5090476;28;20495;-85
2021/12/31 12:14:41;;;;;;;8.15;6.70;;;11.30;99.90;;;;;;5056753;28;20048;-95
2021/12/31 12:17:12;;;;;;;13.30;11.43;;;11.20;99.90;;;;;;5057523;28;20403;-85
2021/12/31 12:19:48;;;;;;;4.95;4.35;;;11.20;99.90;;;;;;5073503;28;20084;-85
2021/12/31 12:22:33;;;;;;;5.13;4.63;;;11.20;99.90;;;;;;5090290;28;20048;-85
2021/12/31 12:25:18;;;;;;;5.53;3.85;;;11.10;99.90;;;;;;5090410;28;20445;-87
2021/12/31 12:27:47;;;;;;;7.80;3.88;;;11.10;99.90;;;;;;5056774;28;20059;-87
2021/12/31 12:30:15;;;;;;;6.88;4.22;;;11.10;99.90;;;;;;5056362;28;20067;-86
2021/12/31 12:35:12;;;;;;;8.68;4.03;;;11.00;99.90;;;;;;5073660;28;20143;-88
2021/12/31 12:37:42;;;;;;;4.40;3.85;;;11.00;99.90;;;;;;5056554;28;20044;-88
2021/12/31 12:40:12;;;;;;;7.45;4.90;;;11.00;99.90;;;;;;5073491;28;20046;-88
2021/12/31 12:42:44;;;;;;;15.63;7.97;;;10.30;99.90;;;;;;5055958;28;20132;-88
2021/12/31 12:45:14;;;;;;;16.38;10.43;;;11.00;99.90;;;;;;5056298;28;20053;-88
2021/12/31 12:47:42;;;;;;;15.63;12.10;;;11.00;99.90;;;;;;5072773;28;20513;-89
2021/12/31 12:50:09;;;;;;;32.35;24.30;;;10.90;99.90;;;;;;5056219;28;20483;-88
2021/12/31 12:52:38;;;;;;;;;;;10.90;99.90;;;;;;5073698;28;20048;-88
2021/12/31 12:55:36;;;;;;;21.83;16.67;;;10.90;99.90;;;;;;5056715;28;19947;-88
2021/12/31 12:58:04;;;;;;;29.95;22.73;;;10.90;99.90;;;;;;5054646;28;20114;-88
2021/12/31 13:00:39;;;;;;;20.48;13.38;;;10.90;99.90;;;;;;5056666;28;20044;-88
2021/12/31 13:03:12;;;;;;;30.20;20.48;;;10.90;99.90;;;;;;5073276;28;20127;-89
2021/12/31 13:05:41;;;;;;;15.25;11.88;;;10.90;99.90;;;;;;5057680;28;20135;-89
2021/12/31 13:08:15;;;;;;;17.75;15.95;;;10.90;99.90;;;;;;5085036;28;20058;-88
2021/12/31 13:10:42;;;;;;;23.50;21.13;;;10.90;99.90;;;;;;5082204;28;20532;-90
2021/12/31 13:13:19;;;;;;;8.63;7.35;;;10.90;99.90;;;;;;5086300;28;20043;-88